Time;durP1;ratioP1;P1;durP2;ratioP2;P2;SDS_P1;SDS_P2;PMS_P1;PMS_P2;Temp;Humidity;BMP_temperature;BMP_pressure;BME280_temperature;BME280_humidity;BME280_pressure;Samples;Min_cycle;Max_cycle;Signal;HPM_P1;HPM_P2
2024/02/19 00:01:46;;;;;;;;;15.33;15.33;;;;;;;;5082974;27;45285;-77
2024/02/19 00:04:11;;;;;;;;;24.00;21.33;;;;;;;;5082878;27;45455;-77
2024/02/19 00:06:36;;;;;;;;;26.67;23.33;;;;;;;;5081039;28;46393;-77
2024/02/19 00:09:02;;;;;;;;;19.33;19.33;;;;;;;;5081521;28;48289;-77
2024/02/19 00:11:27;;;;;;;;;22.00;20.00;;;;;;;;5082774;28;45250;-77
2024/02/19 00:13:52;;;;;;;;;18.00;17.33;;;;;;;;5082968;27;45500;-77
2024/02/19 00:16:19;;;;;;;;;21.00;21.00;;;;;;;;5082671;27;45411;-77
2024/02/19 00:18:44;;;;;;;;;21.00;21.00;;;;;;;;5081142;28;47252;-77
2024/02/19 00:21:09;;;;;;;;;19.00;16.67;;;;;;;;5082416;27;45388;-77
2024/02/19 00:23:35;;;;;;;;;24.00;21.00;;;;;;;;5082777;28;45332;-78
2024/02/19 00:26:00;;;;;;;;;26.00;23.67;;;;;;;;5082431;27;45321;-77
2024/02/19 00:28:26;;;;;;;;;23.67;22.33;;;;;;;;5080956;28;47215;-78
2024/02/19 00:30:51;;;;;;;;;22.67;20.33;;;;;;;;5082492;27;45157;-77
2024/02/19 00:33:16;;;;;;;;;21.00;20.67;;;;;;;;5082665;27;45440;-77
2024/02/19 00:35:42;;;;;;;;;22.00;21.67;;;;;;;;5082089;27;45482;-77
2024/02/19 00:38:07;;;;;;;;;21.00;21.00;;;;;;;;5081025;28;47170;-77
2024/02/19 00:40:33;;;;;;;;;24.00;22.00;;;;;;;;5082418;27;45278;-77
2024/02/19 00:42:58;;;;;;;;;25.33;23.00;;;;;;;;5080815;28;45478;-78
2024/02/19 00:45:23;;;;;;;;;21.67;20.67;;;;;;;;5082318;27;45224;-76
2024/02/19 00:47:49;;;;;;;;;21.33;20.67;;;;;;;;5080701;28;48214;-78
2024/02/19 00:50:14;;;;;;;;;25.00;22.33;;;;;;;;5080456;28;45227;-77
2024/02/19 00:52:40;;;;;;;;;22.33;21.33;;;;;;;;5082098;27;45298;-77
2024/02/19 00:55:05;;;;;;;;;20.67;20.00;;;;;;;;5082006;28;45217;-77
2024/02/19 00:57:31;;;;;;;;;22.67;20.67;;;;;;;;5070987;28;47475;-77
2024/02/19 00:59:56;;;;;;;;;26.67;22.67;;;;;;;;5061764;28;45406;-77
2024/02/19 01:02:21;;;;;;;;;25.67;23.00;;;;;;;;5061823;28;45596;-76
2024/02/19 01:04:49;;;;;;;;;25.33;23.33;;;;;;;;5060063;28;46066;-78
2024/02/19 01:07:15;;;;;;;;;26.67;24.00;;;;;;;;5061249;28;45358;-77
2024/02/19 01:09:40;;;;;;;;;23.00;22.00;;;;;;;;5059234;28;45537;-77
2024/02/19 01:12:06;;;;;;;;;22.67;20.67;;;;;;;;5061538;28;45303;-77
2024/02/19 01:14:31;;;;;;;;;23.33;22.33;;;;;;;;5060012;28;46172;-78
2024/02/19 01:16:57;;;;;;;;;24.33;22.00;;;;;;;;5060044;28;48308;-77
2024/02/19 01:19:22;;;;;;;;;26.33;23.33;;;;;;;;5059723;28;45939;-77
2024/02/19 01:21:50;;;;;;;;;25.00;21.67;;;;;;;;5061355;28;45241;-77
2024/02/19 01:24:15;;;;;;;;;24.67;22.00;;;;;;;;5061091;28;45178;-78
2024/02/19 01:26:40;;;;;;;;;19.33;19.00;;;;;;;;5058648;28;47682;-77
2024/02/19 01:29:05;;;;;;;;;26.33;21.33;;;;;;;;5061239;28;45203;-77
2024/02/19 01:31:31;;;;;;;;;24.67;20.00;;;;;;;;5061494;28;45279;-77
2024/02/19 01:33:56;;;;;;;;;25.67;23.00;;;;;;;;5061058;28;45279;-77
2024/02/19 01:36:22;;;;;;;;;23.00;22.00;;;;;;;;5059291;28;47191;-77
2024/02/19 01:38:47;;;;;;;;;20.67;19.67;;;;;;;;5061108;28;45307;-77
2024/02/19 01:41:12;;;;;;;;;19.00;18.33;;;;;;;;5061278;28;45363;-77
2024/02/19 01:43:37;;;;;;;;;20.33;17.33;;;;;;;;5059602;28;47103;-78
2024/02/19 01:46:02;;;;;;;;;21.67;21.67;;;;;;;;5060666;28;45340;-78
2024/02/19 01:48:28;;;;;;;;;26.33;24.33;;;;;;;;5060583;28;45322;-77
2024/02/19 01:50:53;;;;;;;;;21.33;19.00;;;;;;;;5059734;28;45382;-77
2024/02/19 01:53:18;;;;;;;;;23.00;19.00;;;;;;;;5059940;28;45458;-78
2024/02/19 01:55:44;;;;;;;;;27.33;23.67;;;;;;;;5060715;28;45305;-77
2024/02/19 01:58:11;;;;;;;;;22.00;20.00;;;;;;;;5075162;28;45665;-77
2024/02/19 02:00:36;;;;;;;;;21.67;19.00;;;;;;;;5081178;27;45341;-77
2024/02/19 02:03:02;;;;;;;;;21.67;21.00;;;;;;;;5080934;27;45242;-77
2024/02/19 02:05:28;;;;;;;;;21.67;18.67;;;;;;;;5080659;27;45340;-77
2024/02/19 02:07:53;;;;;;;;;27.33;24.00;;;;;;;;5080824;28;45334;-78
2024/02/19 02:10:18;;;;;;;;;20.33;19.33;;;;;;;;5079801;28;45348;-77
2024/02/19 02:12:44;;;;;;;;;24.67;22.00;;;;;;;;5080842;27;45255;-77
2024/02/19 02:15:09;;;;;;;;;20.33;18.00;;;;;;;;5080751;27;45868;-77
2024/02/19 02:17:34;;;;;;;;;19.67;19.67;;;;;;;;5079403;28;45318;-77
2024/02/19 02:20:00;;;;;;;;;27.33;25.33;;;;;;;;5080752;27;45414;-77
2024/02/19 02:22:25;;;;;;;;;19.00;17.33;;;;;;;;5080422;28;45294;-77
2024/02/19 02:24:50;;;;;;;;;25.33;22.33;;;;;;;;5079103;28;48015;-77
2024/02/19 02:27:16;;;;;;;;;23.00;22.00;;;;;;;;5080460;27;45395;-77
2024/02/19 02:29:41;;;;;;;;;28.33;22.00;;;;;;;;5080802;27;45374;-77
2024/02/19 02:32:06;;;;;;;;;25.33;24.00;;;;;;;;5079117;28;47408;-77
2024/02/19 02:34:32;;;;;;;;;19.67;18.33;;;;;;;;5080345;28;46696;-77
2024/02/19 02:36:57;;;;;;;;;25.33;22.67;;;;;;;;5078778;28;45492;-77
2024/02/19 02:39:23;;;;;;;;;28.33;23.67;;;;;;;;5080668;27;45294;-77
2024/02/19 02:41:48;;;;;;;;;27.67;23.00;;;;;;;;5080393;27;45251;-77
2024/02/19 02:44:14;;;;;;;;;22.00;22.00;;;;;;;;5080278;27;45307;-77
2024/02/19 02:46:39;;;;;;;;;19.67;17.00;;;;;;;;5080352;27;45306;-78
2024/02/19 02:49:04;;;;;;;;;19.33;18.67;;;;;;;;5078946;28;45573;-77
2024/02/19 02:51:29;;;;;;;;;23.00;22.67;;;;;;;;5080180;27;45378;-77
2024/02/19 02:53:55;;;;;;;;;23.33;22.67;;;;;;;;5079916;27;45554;-77
2024/02/19 02:56:20;;;;;;;;;24.00;22.33;;;;;;;;5080178;27;45350;-77
2024/02/19 02:58:46;;;;;;;;;23.33;21.67;;;;;;;;5060311;27;45494;-77
2024/02/19 03:01:12;;;;;;;;;25.00;18.33;;;;;;;;5059802;28;45382;-77
2024/02/19 03:03:38;;;;;;;;;24.00;22.67;;;;;;;;5059688;28;45336;-77
2024/02/19 03:06:03;;;;;;;;;24.00;24.00;;;;;;;;5059532;28;45228;-77
2024/02/19 03:08:28;;;;;;;;;22.33;21.33;;;;;;;;5058341;28;45338;-77
2024/02/19 03:10:53;;;;;;;;;25.67;23.33;;;;;;;;5058500;28;46295;-77
2024/02/19 03:13:18;;;;;;;;;21.67;19.33;;;;;;;;5059720;28;45296;-77
2024/02/19 03:15:44;;;;;;;;;22.33;21.67;;;;;;;;5059391;28;45272;-77
2024/02/19 03:18:09;;;;;;;;;22.33;21.00;;;;;;;;5059881;28;45218;-77
2024/02/19 03:20:34;;;;;;;;;25.67;21.33;;;;;;;;5059239;28;45300;-77
2024/02/19 03:23:00;;;;;;;;;18.00;16.33;;;;;;;;5058053;28;48059;-77
2024/02/19 03:25:25;;;;;;;;;25.67;22.33;;;;;;;;5059236;28;45252;-76
2024/02/19 03:27:51;;;;;;;;;20.33;19.00;;;;;;;;5059236;28;45268;-77
2024/02/19 03:30:16;;;;;;;;;20.33;18.00;;;;;;;;5059396;28;46043;-75
2024/02/19 03:32:42;;;;;;;;;19.33;18.00;;;;;;;;5061899;28;45417;-78
2024/02/19 03:35:07;;;;;;;;;20.33;19.67;;;;;;;;5062715;28;45536;-76
2024/02/19 03:37:32;;;;;;;;;23.00;20.67;;;;;;;;5063215;28;45256;-77
2024/02/19 03:39:57;;;;;;;;;22.00;20.33;;;;;;;;5062970;28;45314;-77
2024/02/19 03:42:22;;;;;;;;;23.67;20.67;;;;;;;;5062790;28;46309;-77
2024/02/19 03:44:48;;;;;;;;;21.67;20.00;;;;;;;;5062802;28;45249;-77
2024/02/19 03:47:13;;;;;;;;;16.00;13.67;;;;;;;;5063037;28;45358;-77
2024/02/19 03:49:38;;;;;;;;;21.33;20.33;;;;;;;;5062740;28;45364;-77
2024/02/19 03:52:03;;;;;;;;;17.00;14.67;;;;;;;;5062149;28;45382;-77
2024/02/19 03:54:29;;;;;;;;;21.00;18.33;;;;;;;;5062808;28;45423;-77
2024/02/19 03:56:54;;;;;;;;;17.67;17.33;;;;;;;;5065534;28;45304;-77
2024/02/19 03:59:19;;;;;;;;;17.67;17.00;;;;;;;;5082902;27;45362;-76
2024/02/19 04:01:44;;;;;;;;;20.67;19.00;;;;;;;;5082897;28;45384;-77
2024/02/19 04:04:09;;;;;;;;;19.00;18.33;;;;;;;;5082808;27;45284;-77
2024/02/19 04:06:35;;;;;;;;;18.33;15.00;;;;;;;;5081537;28;45243;-77
2024/02/19 04:09:00;;;;;;;;;18.33;17.00;;;;;;;;5082873;27;45305;-76
2024/02/19 04:11:25;;;;;;;;;23.00;21.67;;;;;;;;5082495;27;46206;-77
2024/02/19 04:13:50;;;;;;;;;21.00;20.00;;;;;;;;5081525;28;45376;-77
2024/02/19 04:16:15;;;;;;;;;18.33;17.00;;;;;;;;5082810;27;45551;-77
2024/02/19 04:18:40;;;;;;;;;17.67;15.33;;;;;;;;5081148;28;47269;-77
2024/02/19 04:21:06;;;;;;;;;18.33;17.67;;;;;;;;5082336;27;45337;-77
2024/02/19 04:23:31;;;;;;;;;17.33;16.00;;;;;;;;5082677;28;45288;-77
2024/02/19 04:25:56;;;;;;;;;18.33;15.67;;;;;;;;5082635;27;45255;-76
2024/02/19 04:28:22;;;;;;;;;18.00;18.00;;;;;;;;5082317;27;45267;-77
2024/02/19 04:30:47;;;;;;;;;21.33;19.67;;;;;;;;5082483;27;46082;-77
2024/02/19 04:33:12;;;;;;;;;17.00;16.67;;;;;;;;5082649;27;45299;-77
2024/02/19 04:35:38;;;;;;;;;16.33;15.67;;;;;;;;5082207;27;45289;-77
2024/02/19 04:38:03;;;;;;;;;21.33;18.00;;;;;;;;5082440;27;45200;-77
2024/02/19 04:40:28;;;;;;;;;17.33;16.67;;;;;;;;5080930;28;47108;-77
2024/02/19 04:42:53;;;;;;;;;17.67;17.33;;;;;;;;5081005;27;45331;-76
2024/02/19 04:45:18;;;;;;;;;19.67;17.67;;;;;;;;5081029;28;45176;-77
2024/02/19 04:47:44;;;;;;;;;15.67;15.33;;;;;;;;5082134;27;45499;-77
2024/02/19 04:50:09;;;;;;;;;16.00;12.33;;;;;;;;5081825;27;46558;-77
2024/02/19 04:52:34;;;;;;;;;17.33;15.67;;;;;;;;5082029;28;45290;-77
2024/02/19 04:54:59;;;;;;;;;16.00;16.00;;;;;;;;5071104;27;45404;-77
2024/02/19 04:57:24;;;;;;;;;17.33;16.67;;;;;;;;5069724;28;46412;-76
2024/02/19 04:59:50;;;;;;;;;20.33;17.00;;;;;;;;5079977;28;47083;-77
2024/02/19 05:02:15;;;;;;;;;15.33;14.33;;;;;;;;5081223;27;45265;-77
2024/02/19 05:04:40;;;;;;;;;15.67;14.00;;;;;;;;5081974;27;45531;-76
2024/02/19 05:07:05;;;;;;;;;19.00;15.00;;;;;;;;5081724;28;45290;-77
2024/02/19 05:09:30;;;;;;;;;19.00;18.33;;;;;;;;5081890;28;46178;-77
2024/02/19 05:11:56;;;;;;;;;16.33;13.33;;;;;;;;5081882;27;45278;-77
2024/02/19 05:14:21;;;;;;;;;16.33;13.67;;;;;;;;5080722;28;45234;-76
2024/02/19 05:16:46;;;;;;;;;18.00;17.33;;;;;;;;5081699;28;45393;-77
2024/02/19 05:19:11;;;;;;;;;13.00;12.67;;;;;;;;5081659;27;45354;-77
2024/02/19 05:21:41;;;;;;;;;17.33;15.00;;;;;;;;5081549;27;45288;-77
2024/02/19 05:24:06;;;;;;;;;22.67;17.67;;;;;;;;5081778;27;45357;-77
2024/02/19 05:26:31;;;;;;;;;25.00;22.67;;;;;;;;5081201;27;45268;-77
2024/02/19 05:28:57;;;;;;;;;19.33;16.00;;;;;;;;5081388;27;46313;-77
2024/02/19 05:31:34;;;;;;;;;20.00;19.33;;;;;;;;5080164;28;45303;-77
2024/02/19 05:34:01;;;;;;;;;21.33;20.00;;;;;;;;5081457;27;45223;-77
2024/02/19 05:36:26;;;;;;;;;21.33;19.00;;;;;;;;5079811;28;46213;-77
2024/02/19 05:38:52;;;;;;;;;21.33;20.67;;;;;;;;5081195;27;45435;-77
2024/02/19 05:41:17;;;;;;;;;19.33;16.00;;;;;;;;5081232;27;45341;-77
2024/02/19 05:43:46;;;;;;;;;19.67;16.67;;;;;;;;5081608;27;45316;-77
2024/02/19 05:46:13;;;;;;;;;19.00;17.67;;;;;;;;5079929;28;46967;-77
2024/02/19 05:48:38;;;;;;;;;19.00;17.33;;;;;;;;5081003;27;45264;-77
2024/02/19 05:51:03;;;;;;;;;23.00;21.67;;;;;;;;5071134;27;45323;-77
2024/02/19 05:53:32;;;;;;;;;18.33;17.33;;;;;;;;5060838;28;45358;-76
2024/02/19 05:55:57;;;;;;;;;18.67;18.67;;;;;;;;5060330;28;45284;-77
2024/02/19 05:58:23;;;;;;;;;20.00;18.33;;;;;;;;5075381;28;46430;-77
2024/02/19 06:00:48;;;;;;;;;24.00;19.00;;;;;;;;5062641;27;45330;-77
2024/02/19 06:03:13;;;;;;;;;18.00;17.33;;;;;;;;5059147;28;45288;-77
2024/02/19 06:05:38;;;;;;;;;22.67;20.33;;;;;;;;5059058;28;45267;-77
2024/02/19 06:08:03;;;;;;;;;21.33;20.67;;;;;;;;5058886;28;46975;-77
2024/02/19 06:10:29;;;;;;;;;25.67;25.00;;;;;;;;5060583;28;45345;-77
2024/02/19 06:12:54;;;;;;;;;19.00;19.00;;;;;;;;5060803;28;45253;-77
2024/02/19 06:15:19;;;;;;;;;20.67;20.33;;;;;;;;5060505;28;45342;-77
2024/02/19 06:17:44;;;;;;;;;21.00;19.33;;;;;;;;5060424;28;45428;-76
2024/02/19 06:20:10;;;;;;;;;20.33;20.00;;;;;;;;5060167;28;45306;-77
2024/02/19 06:22:35;;;;;;;;;19.67;18.67;;;;;;;;5060649;28;45314;-77
2024/02/19 06:25:00;;;;;;;;;20.00;19.33;;;;;;;;5060318;28;45468;-77
2024/02/19 06:27:25;;;;;;;;;20.67;17.33;;;;;;;;5060058;28;45582;-78
2024/02/19 06:29:50;;;;;;;;;24.00;22.33;;;;;;;;5060286;28;45323;-79
2024/02/19 06:32:16;;;;;;;;;20.00;18.33;;;;;;;;5059029;28;45358;-78
2024/02/19 06:34:41;;;;;;;;;25.00;22.00;;;;;;;;5058674;28;46325;-77
2024/02/19 06:37:06;;;;;;;;;19.67;19.00;;;;;;;;5058644;28;46900;-78
2024/02/19 06:39:33;;;;;;;;;19.33;18.00;;;;;;;;5058740;28;45220;-77
2024/02/19 06:41:58;;;;;;;;;18.00;17.00;;;;;;;;5060256;28;45438;-77
2024/02/19 06:44:23;;;;;;;;;13.00;13.00;;;;;;;;5059899;28;45258;-77
2024/02/19 06:46:49;;;;;;;;;15.00;12.33;;;;;;;;5059826;28;45464;-77
2024/02/19 06:49:14;;;;;;;;;10.67;9.33;;;;;;;;5059732;28;45269;-78
2024/02/19 06:51:39;;;;;;;;;18.33;18.33;;;;;;;;5060029;28;45311;-78
2024/02/19 06:54:04;;;;;;;;;14.00;11.00;;;;;;;;5059611;28;45248;-79
2024/02/19 06:56:30;;;;;;;;;20.67;18.00;;;;;;;;5059500;28;45203;-77
2024/02/19 06:58:55;;;;;;;;;22.00;17.00;;;;;;;;5058288;28;46024;-78
2024/02/19 07:01:20;;;;;;;;;19.33;17.67;;;;;;;;5069152;28;45223;-77
2024/02/19 07:03:46;;;;;;;;;17.67;14.33;;;;;;;;5076215;28;45133;-76
2024/02/19 07:06:11;;;;;;;;;26.67;26.33;;;;;;;;5066222;28;46944;-77
2024/02/19 07:08:36;;;;;;;;;18.00;16.00;;;;;;;;5081693;28;45161;-77
2024/02/19 07:11:01;;;;;;;;;16.00;14.00;;;;;;;;5084061;28;44954;-78
2024/02/19 07:13:26;;;;;;;;;14.00;13.00;;;;;;;;5073661;28;45334;-79
2024/02/19 07:15:51;;;;;;;;;18.33;16.67;;;;;;;;5068952;28;45505;-78
2024/02/19 07:18:17;;;;;;;;;18.67;17.67;;;;;;;;5070943;28;45275;-77
2024/02/19 07:20:42;;;;;;;;;15.33;13.33;;;;;;;;5074409;28;44683;-78
2024/02/19 07:23:07;;;;;;;;;19.67;16.00;;;;;;;;5073009;28;45942;-78
2024/02/19 07:25:32;;;;;;;;;23.67;22.33;;;;;;;;5065523;28;48433;-78
2024/02/19 07:27:57;;;;;;;;;20.00;19.33;;;;;;;;5059000;28;45415;-78
2024/02/19 07:30:23;;;;;;;;;23.33;22.00;;;;;;;;5065153;28;45479;-77
2024/02/19 07:32:48;;;;;;;;;20.33;19.33;;;;;;;;5067732;28;45231;-79
2024/02/19 07:35:13;;;;;;;;;24.00;21.00;;;;;;;;5060558;28;45351;-76
2024/02/19 07:37:38;;;;;;;;;21.33;18.33;;;;;;;;5061576;28;45250;-76
2024/02/19 07:40:04;;;;;;;;;17.33;16.33;;;;;;;;5071094;28;45298;-76
2024/02/19 07:42:29;;;;;;;;;21.00;18.67;;;;;;;;5067438;28;45540;-76
2024/02/19 07:44:55;;;;;;;;;18.33;18.00;;;;;;;;5071357;28;45382;-76
2024/02/19 07:47:20;;;;;;;;;17.67;17.67;;;;;;;;5072717;28;45235;-75
2024/02/19 07:49:46;;;;;;;;;14.67;12.33;;;;;;;;5079488;28;44710;-76
2024/02/19 07:52:11;;;;;;;;;25.00;20.67;;;;;;;;5082286;28;46451;-76
2024/02/19 07:54:36;;;;;;;;;10.33;10.00;;;;;;;;5076537;28;46135;-76
2024/02/19 07:57:02;;;;;;;;;16.00;14.67;;;;;;;;5083309;28;45270;-76
2024/02/19 07:59:27;;;;;;;;;16.33;12.67;;;;;;;;5080724;28;44589;-76
2024/02/19 08:01:52;;;;;;;;;21.00;17.33;;;;;;;;5080722;28;45862;-76
2024/02/19 08:04:19;;;;;;;;;21.00;15.67;;;;;;;;5080896;28;47205;-75
2024/02/19 08:06:44;;;;;;;;;22.33;20.33;;;;;;;;5079346;28;45540;-75
2024/02/19 08:09:09;;;;;;;;;20.33;20.00;;;;;;;;5079951;28;44716;-77
2024/02/19 08:11:35;;;;;;;;;27.33;22.67;;;;;;;;5077879;28;44729;-75
2024/02/19 08:14:00;;;;;;;;;21.67;20.00;;;;;;;;5073868;28;47298;-76
2024/02/19 08:16:25;;;;;;;;;22.00;21.00;;;;;;;;5073892;28;45456;-75
2024/02/19 08:18:52;;;;;;;;;24.33;21.67;;;;;;;;5080639;28;45207;-76
2024/02/19 08:21:17;;;;;;;;;21.00;18.00;;;;;;;;5069109;28;46181;-75
2024/02/19 08:23:42;;;;;;;;;19.00;17.33;;;;;;;;5071891;28;45441;-75
2024/02/19 08:26:07;;;;;;;;;17.67;17.00;;;;;;;;5072044;28;45339;-75
2024/02/19 08:28:33;;;;;;;;;18.00;15.67;;;;;;;;5073392;28;45339;-75
2024/02/19 08:30:58;;;;;;;;;17.67;14.33;;;;;;;;5074145;28;47191;-75
2024/02/19 08:33:23;;;;;;;;;17.33;14.00;;;;;;;;5076627;28;45294;-75
2024/02/19 08:35:50;;;;;;;;;17.33;17.00;;;;;;;;5080526;28;44771;-75
2024/02/19 08:38:15;;;;;;;;;25.33;18.67;;;;;;;;5076159;28;44694;-76
2024/02/19 08:40:40;;;;;;;;;17.00;15.33;;;;;;;;5078608;28;45268;-76
2024/02/19 08:43:10;;;;;;;;;14.00;13.33;;;;;;;;5075425;28;45645;-75
2024/02/19 08:45:35;;;;;;;;;14.00;13.67;;;;;;;;5076014;28;45294;-77
2024/02/19 08:48:00;;;;;;;;;14.00;13.33;;;;;;;;5078700;28;45375;-76
2024/02/19 08:50:25;;;;;;;;;14.33;13.00;;;;;;;;5076673;28;45187;-76
2024/02/19 08:52:51;;;;;;;;;14.67;13.67;;;;;;;;5081635;28;45318;-76
2024/02/19 08:55:16;;;;;;;;;16.33;14.67;;;;;;;;5081653;28;45196;-76
2024/02/19 08:57:41;;;;;;;;;15.00;13.33;;;;;;;;5083439;28;45266;-75
2024/02/19 09:00:08;;;;;;;;;15.67;12.33;;;;;;;;5079688;28;45141;-76
2024/02/19 09:02:34;;;;;;;;;15.33;14.67;;;;;;;;5080902;28;45540;-76
2024/02/19 09:05:00;;;;;;;;;15.33;12.00;;;;;;;;5069767;28;45502;-76
2024/02/19 09:07:25;;;;;;;;;16.00;11.67;;;;;;;;5067045;28;45461;-77
2024/02/19 09:09:50;;;;;;;;;13.00;12.67;;;;;;;;5067781;28;45547;-76
2024/02/19 09:12:15;;;;;;;;;13.50;12.50;;;;;;;;5069850;28;45506;-77
2024/02/19 09:14:40;;;;;;;;;15.00;12.67;;;;;;;;5067087;28;45287;-76
2024/02/19 09:17:06;;;;;;;;;14.33;13.67;;;;;;;;5065387;28;45341;-76
2024/02/19 09:19:32;;;;;;;;;13.33;12.00;;;;;;;;5059070;28;45560;-75
2024/02/19 09:21:57;;;;;;;;;8.00;7.00;;;;;;;;5061691;28;46308;-77
2024/02/19 09:24:22;;;;;;;;;11.33;9.00;;;;;;;;5061224;28;45298;-77
2024/02/19 09:26:47;;;;;;;;;11.67;11.33;;;;;;;;5068251;28;45299;-77
2024/02/19 09:29:12;;;;;;;;;12.67;11.33;;;;;;;;5066217;28;47202;-76
2024/02/19 09:31:38;;;;;;;;;10.33;9.67;;;;;;;;5078789;28;47085;-77
2024/02/19 09:34:03;;;;;;;;;12.00;8.00;;;;;;;;5078417;28;45376;-76
2024/02/19 09:36:28;;;;;;;;;11.67;9.67;;;;;;;;5067925;28;44617;-76
2024/02/19 09:38:54;;;;;;;;;12.00;11.00;;;;;;;;5067856;28;45483;-77
2024/02/19 09:41:19;;;;;;;;;8.33;8.33;;;;;;;;5063353;28;45374;-76
2024/02/19 09:43:45;;;;;;;;;7.50;7.50;;;;;;;;5062660;28;45231;-76
2024/02/19 09:46:22;;;;;;;;;8.00;6.67;;;;;;;;5065069;28;45235;-75
2024/02/19 09:48:50;;;;;;;;;7.00;6.00;;;;;;;;5070308;28;45400;-74
2024/02/19 09:51:20;;;;;;;;;6.00;4.67;;;;;;;;5069539;28;46136;-75
2024/02/19 09:53:50;;;;;;;;;8.67;8.67;;;;;;;;5061176;28;45327;-76
2024/02/19 09:56:17;;;;;;;;;5.33;5.33;;;;;;;;5063545;28;45469;-76
2024/02/19 09:58:43;;;;;;;;;4.33;3.00;;;;;;;;5070147;28;46023;-76
2024/02/19 10:01:08;;;;;;;;;4.00;3.00;;;;;;;;5061360;28;45253;-76
2024/02/19 10:03:33;;;;;;;;;5.67;4.00;;;;;;;;5062909;28;45335;-75
2024/02/19 10:05:58;;;;;;;;;8.00;8.00;;;;;;;;5061337;28;45312;-76
2024/02/19 10:08:23;;;;;;;;;3.33;3.33;;;;;;;;5066278;28;47180;-76
2024/02/19 10:10:54;;;;;;;;;5.33;5.33;;;;;;;;5075209;28;46171;-76
2024/02/19 10:13:20;;;;;;;;;6.00;4.33;;;;;;;;5074852;28;45220;-75
2024/02/19 10:15:45;;;;;;;;;5.00;4.33;;;;;;;;5068703;28;45402;-75
2024/02/19 10:18:14;;;;;;;;;6.33;4.33;;;;;;;;5062674;28;45438;-76
2024/02/19 10:20:52;;;;;;;;;8.00;6.33;;;;;;;;5073869;28;47207;-76
2024/02/19 10:23:18;;;;;;;;;6.00;5.00;;;;;;;;5071122;28;45453;-76
2024/02/19 10:25:44;;;;;;;;;5.33;3.67;;;;;;;;5072905;28;44868;-76
2024/02/19 10:28:09;;;;;;;;;6.33;6.33;;;;;;;;5072463;28;46063;-76
2024/02/19 10:30:34;;;;;;;;;7.33;4.67;;;;;;;;5075469;28;45640;-76
2024/02/19 10:33:00;;;;;;;;;6.33;5.00;;;;;;;;5073452;28;44819;-77
2024/02/19 10:35:25;;;;;;;;;3.00;3.00;;;;;;;;5074692;28;45252;-76
2024/02/19 10:37:53;;;;;;;;;5.67;5.33;;;;;;;;5076063;28;45466;-75
2024/02/19 10:40:19;;;;;;;;;3.67;2.67;;;;;;;;5079367;28;47164;-75
2024/02/19 10:42:47;;;;;;;;;3.67;3.67;;;;;;;;5077502;28;45200;-76
2024/02/19 10:45:13;;;;;;;;;4.33;4.33;;;;;;;;5075747;28;45449;-76
2024/02/19 10:47:39;;;;;;;;;3.00;3.00;;;;;;;;5073495;28;46245;-76
2024/02/19 10:50:05;;;;;;;;;4.33;2.67;;;;;;;;5065975;28;45811;-76
2024/02/19 10:52:33;;;;;;;;;4.33;4.00;;;;;;;;5064102;28;45409;-77
2024/02/19 10:54:59;;;;;;;;;4.00;4.00;;;;;;;;5068595;28;45226;-76
2024/02/19 10:57:27;;;;;;;;;4.33;4.33;;;;;;;;5072747;28;45684;-77
2024/02/19 11:00:06;;;;;;;;;3.00;3.00;;;;;;;;5081943;27;45359;-77
2024/02/19 11:02:31;;;;;;;;;2.00;2.00;;;;;;;;5079921;28;45325;-77
2024/02/19 11:04:57;;;;;;;;;3.33;3.00;;;;;;;;5085036;27;45341;-76
2024/02/19 11:07:23;;;;;;;;;5.67;5.00;;;;;;;;5085126;27;45319;-76
2024/02/19 11:09:57;;;;;;;;;7.00;5.33;;;;;;;;5079642;28;47349;-76
2024/02/19 11:12:25;;;;;;;;;9.67;9.33;;;;;;;;5082359;27;44681;-77
2024/02/19 11:14:50;;;;;;;;;6.67;6.00;;;;;;;;5080597;28;45172;-76
2024/02/19 11:17:16;;;;;;;;;5.00;5.00;;;;;;;;5080030;27;45326;-77
2024/02/19 11:19:41;;;;;;;;;10.00;10.00;;;;;;;;5081287;27;46501;-77
2024/02/19 11:22:09;;;;;;;;;7.00;6.00;;;;;;;;5080839;28;45337;-76
2024/02/19 11:24:34;;;;;;;;;5.67;5.67;;;;;;;;5093095;27;44684;-75
2024/02/19 11:27:01;;;;;;;;;6.00;5.67;;;;;;;;5087481;28;45459;-75
2024/02/19 11:29:27;;;;;;;;;8.67;7.00;;;;;;;;5076658;27;45684;-76
2024/02/19 11:32:02;;;;;;;;;5.67;5.33;;;;;;;;5058473;28;45248;-76
2024/02/19 11:34:28;;;;;;;;;7.33;6.00;;;;;;;;5050934;28;45300;-77
2024/02/19 11:37:03;;;;;;;;;5.33;5.33;;;;;;;;5059593;28;45460;-76
2024/02/19 11:39:29;;;;;;;;;5.67;5.67;;;;;;;;5058439;28;48342;-75
2024/02/19 11:41:54;;;;;;;;;5.00;4.67;;;;;;;;5060654;28;45286;-76
2024/02/19 11:44:20;;;;;;;;;5.00;5.00;;;;;;;;5062656;28;45279;-76
2024/02/19 11:46:45;;;;;;;;;6.33;6.33;;;;;;;;5065162;28;47301;-76
2024/02/19 11:49:12;;;;;;;;;5.67;5.67;;;;;;;;5076183;28;46083;-76
2024/02/19 11:51:39;;;;;;;;;4.00;4.00;;;;;;;;5064213;28;44702;-76
2024/02/19 11:54:11;;;;;;;;;5.00;4.00;;;;;;;;5057653;28;45362;-76
2024/02/19 11:56:49;;;;;;;;;4.00;4.00;;;;;;;;5058768;28;45288;-76
2024/02/19 11:59:14;;;;;;;;;8.00;8.00;;;;;;;;5062589;28;47881;-77
2024/02/19 12:01:39;;;;;;;;;4.33;2.33;;;;;;;;5071036;28;45722;-76
2024/02/19 12:04:05;;;;;;;;;4.33;4.33;;;;;;;;5076395;28;44675;-78
2024/02/19 12:06:35;;;;;;;;;3.67;3.67;;;;;;;;5081935;28;44717;-78
2024/02/19 12:09:00;;;;;;;;;4.00;4.00;;;;;;;;5084751;28;45407;-78
2024/02/19 12:11:25;;;;;;;;;7.00;4.67;;;;;;;;5086734;28;45299;-78
2024/02/19 12:13:51;;;;;;;;;5.33;4.33;;;;;;;;5083835;28;45345;-77
2024/02/19 12:16:17;;;;;;;;;6.33;6.33;;;;;;;;5081166;28;45343;-76
2024/02/19 12:18:45;;;;;;;;;7.00;6.00;;;;;;;;5079282;28;45176;-77
2024/02/19 12:21:10;;;;;;;;;3.67;3.67;;;;;;;;5063533;28;45354;-77
2024/02/19 12:23:39;;;;;;;;;3.67;3.67;;;;;;;;5062382;28;46614;-77
2024/02/19 12:26:05;;;;;;;;;1.67;1.67;;;;;;;;5062100;28;45226;-76
2024/02/19 12:28:30;;;;;;;;;1.00;1.00;;;;;;;;5065448;28;47391;-77
2024/02/19 12:30:55;;;;;;;;;2.33;2.33;;;;;;;;5067121;28;45292;-77
2024/02/19 12:33:21;;;;;;;;;2.00;2.00;;;;;;;;5069975;28;45163;-78
2024/02/19 12:35:47;;;;;;;;;2.00;2.00;;;;;;;;5071405;28;45310;-78
2024/02/19 12:38:13;;;;;;;;;1.33;1.33;;;;;;;;5069508;28;47285;-78
2024/02/19 12:40:38;;;;;;;;;0.00;0.00;;;;;;;;5065805;28;45359;-77
2024/02/19 12:43:06;;;;;;;;;0.33;0.33;;;;;;;;5068489;28;45295;-78
2024/02/19 12:45:31;;;;;;;;;0.33;0.33;;;;;;;;5067154;28;45258;-78
2024/02/19 12:47:56;;;;;;;;;0.00;0.00;;;;;;;;5060657;28;45365;-78
2024/02/19 12:50:21;;;;;;;;;1.00;1.00;;;;;;;;5061264;28;45271;-78
2024/02/19 12:52:47;;;;;;;;;2.33;2.33;;;;;;;;5063572;28;45321;-78
2024/02/19 12:55:12;;;;;;;;;0.33;0.33;;;;;;;;5056253;28;45585;-78
2024/02/19 12:57:38;;;;;;;;;0.67;0.33;;;;;;;;5068507;28;46329;-77
2024/02/19 13:00:07;;;;;;;;;1.33;1.33;;;;;;;;5063749;28;45295;-77
2024/02/19 13:02:32;;;;;;;;;1.33;1.33;;;;;;;;5059333;28;45464;-78
2024/02/19 13:04:57;;;;;;;;;1.33;1.33;;;;;;;;5060039;28;45322;-78
2024/02/19 13:07:22;;;;;;;;;0.00;0.00;;;;;;;;5059525;28;48242;-78
2024/02/19 13:09:47;;;;;;;;;1.00;1.00;;;;;;;;5039582;28;45887;-77
2024/02/19 13:12:13;;;;;;;;;1.00;1.00;;;;;;;;5039485;28;45507;-78
2024/02/19 13:14:39;;;;;;;;;3.00;2.00;;;;;;;;5061102;28;45488;-79
2024/02/19 13:17:05;;;;;;;;;1.33;1.33;;;;;;;;5058646;28;47237;-78
2024/02/19 13:19:30;;;;;;;;;2.33;1.33;;;;;;;;5060371;28;45292;-78
2024/02/19 13:21:55;;;;;;;;;2.00;2.00;;;;;;;;5061050;28;45401;-78
2024/02/19 13:24:21;;;;;;;;;4.33;3.33;;;;;;;;5060283;28;45302;-80
2024/02/19 13:26:48;;;;;;;;;2.33;2.33;;;;;;;;5064165;28;45368;-77
2024/02/19 13:29:13;;;;;;;;;1.67;1.67;;;;;;;;5060728;28;45440;-77
2024/02/19 13:31:40;;;;;;;;;2.67;1.67;;;;;;;;5061157;28;45346;-78
2024/02/19 13:34:06;;;;;;;;;2.33;2.33;;;;;;;;5058910;28;46178;-78
2024/02/19 13:36:31;;;;;;;;;3.33;3.33;;;;;;;;5061086;28;46170;-79
2024/02/19 13:38:57;;;;;;;;;6.00;5.33;;;;;;;;5061029;28;45173;-79
2024/02/19 13:41:22;;;;;;;;;6.33;5.67;;;;;;;;5061058;28;45405;-78
2024/02/19 13:43:48;;;;;;;;;5.00;4.67;;;;;;;;5059184;28;45755;-77
2024/02/19 13:46:16;;;;;;;;;4.00;2.00;;;;;;;;5060850;28;45406;-79
2024/02/19 13:48:42;;;;;;;;;4.00;3.00;;;;;;;;5063516;28;45362;-78
2024/02/19 13:51:07;;;;;;;;;3.33;3.00;;;;;;;;5062415;28;45366;-79
2024/02/19 13:53:32;;;;;;;;;4.67;3.67;;;;;;;;5058135;28;46878;-77
2024/02/19 13:55:58;;;;;;;;;2.33;0.67;;;;;;;;5067939;28;45658;-77
2024/02/19 13:58:24;;;;;;;;;8.67;5.00;;;;;;;;5092078;27;45175;-78
2024/02/19 14:00:50;;;;;;;;;2.00;2.00;;;;;;;;5061810;28;45163;-76
2024/02/19 14:03:16;;;;;;;;;5.00;4.00;;;;;;;;5042325;28;46178;-77
2024/02/19 14:05:41;;;;;;;;;6.00;3.00;;;;;;;;5048103;28;47180;-77
2024/02/19 14:08:07;;;;;;;;;4.00;4.00;;;;;;;;5054136;28;45263;-77
2024/02/19 14:10:32;;;;;;;;;4.00;2.33;;;;;;;;5055320;28;45228;-77
2024/02/19 14:12:58;;;;;;;;;3.00;3.00;;;;;;;;5055792;28;45303;-78
2024/02/19 14:15:23;;;;;;;;;5.67;3.00;;;;;;;;5067180;28;47162;-77
2024/02/19 14:17:48;;;;;;;;;4.00;3.67;;;;;;;;5075495;28;45464;-78